createdAt,value
2019-03-28T00:01:06.155Z,2.67
2019-03-28T00:03:38.795Z,3.53
2019-03-28T00:06:13.200Z,2.00
2019-03-28T00:08:45.882Z,1.90
2019-03-28T00:11:18.628Z,1.85
2019-03-28T00:13:51.746Z,1.85
2019-03-28T00:16:24.410Z,1.92
2019-03-28T00:18:57.589Z,2.10
2019-03-28T00:21:30.404Z,3.02
2019-03-28T00:24:20.695Z,3.12
2019-03-28T00:26:53.350Z,1.65
2019-03-28T00:29:25.953Z,2.50
2019-03-28T00:31:58.623Z,1.60
2019-03-28T00:34:31.310Z,2.17
2019-03-28T00:37:03.908Z,1.70
2019-03-28T00:39:36.460Z,2.50
2019-03-28T00:42:09.039Z,2.42
2019-03-28T00:44:41.627Z,2.27
2019-03-28T00:47:14.172Z,2.40
2019-03-28T00:49:46.788Z,1.67
2019-03-28T00:52:19.257Z,2.83
2019-03-28T00:54:51.822Z,1.75
2019-03-28T00:57:24.293Z,2.22
2019-03-28T00:59:57.079Z,2.05
2019-03-28T01:02:29.615Z,2.05
2019-03-28T01:05:02.238Z,2.65
2019-03-28T01:07:34.883Z,1.37
2019-03-28T01:10:07.511Z,1.95
2019-03-28T01:12:40.168Z,1.85
2019-03-28T01:15:12.660Z,2.10
2019-03-28T01:17:45.321Z,2.52
2019-03-28T01:20:17.807Z,1.90
2019-03-28T01:22:50.140Z,2.27
2019-03-28T01:25:23.274Z,2.17
2019-03-28T01:27:55.736Z,2.65
2019-03-28T01:30:28.348Z,2.33
2019-03-28T01:33:00.943Z,4.42
2019-03-28T01:35:33.571Z,2.15
2019-03-28T01:38:06.134Z,1.92
2019-03-28T01:40:38.706Z,1.60
2019-03-28T01:43:11.277Z,1.82
2019-03-28T01:45:43.824Z,2.55
2019-03-28T01:48:16.397Z,2.83
2019-03-28T01:50:49.032Z,1.60
2019-03-28T01:53:21.726Z,2.25
2019-03-28T01:55:54.434Z,2.10
2019-03-28T01:58:27.188Z,2.02
2019-03-28T02:01:02.794Z,2.00
2019-03-28T02:03:34.170Z,1.92
2019-03-28T02:06:06.758Z,2.25
2019-03-28T02:08:39.331Z,1.47
2019-03-28T02:11:12.114Z,1.82
2019-03-28T02:13:44.793Z,1.70
2019-03-28T02:16:17.514Z,1.90
2019-03-28T02:18:50.123Z,3.55
2019-03-28T02:21:22.753Z,1.95
2019-03-28T02:23:55.265Z,1.85
2019-03-28T02:26:27.828Z,3.15
2019-03-28T02:29:00.460Z,1.50
2019-03-28T02:31:33.149Z,1.82
2019-03-28T02:34:05.727Z,1.75
2019-03-28T02:36:38.309Z,1.55
2019-03-28T02:39:10.978Z,1.87
2019-03-28T02:41:43.720Z,3.30
2019-03-28T02:44:16.268Z,2.45
2019-03-28T02:46:48.904Z,3.52
2019-03-28T02:49:21.444Z,1.30
2019-03-28T02:51:54.203Z,1.80
2019-03-28T02:54:26.848Z,1.80
2019-03-28T02:56:59.486Z,2.27
2019-03-28T02:59:32.243Z,2.40
2019-03-28T03:02:05.207Z,1.70
2019-03-28T03:04:37.781Z,3.58
2019-03-28T03:07:10.465Z,2.27
2019-03-28T03:09:43.040Z,2.02
2019-03-28T03:12:15.922Z,1.98
2019-03-28T03:14:48.593Z,1.57
2019-03-28T03:17:21.211Z,2.85
2019-03-28T03:19:53.861Z,2.17
2019-03-28T03:22:26.542Z,2.20
2019-03-28T03:24:59.129Z,2.47
2019-03-28T03:27:31.791Z,2.33
2019-03-28T03:30:08.259Z,2.35
2019-03-28T03:32:41.062Z,2.67
2019-03-28T03:35:13.679Z,1.92
2019-03-28T03:37:46.307Z,3.67
2019-03-28T03:40:18.949Z,1.92
2019-03-28T03:42:51.660Z,2.20
2019-03-28T03:45:24.334Z,1.77
2019-03-28T03:47:57.019Z,1.62
2019-03-28T03:50:30.123Z,2.95
2019-03-28T03:53:02.786Z,2.42
2019-03-28T03:55:35.465Z,2.02
2019-03-28T03:58:16.444Z,2.45
2019-03-28T04:00:43.013Z,2.95
2019-03-28T04:03:15.582Z,1.92
2019-03-28T04:05:48.653Z,2.52
2019-03-28T04:08:21.388Z,1.75
2019-03-28T04:10:56.590Z,3.05
2019-03-28T04:13:29.249Z,2.05
2019-03-28T04:16:02.250Z,3.22
2019-03-28T04:18:35.294Z,2.37
2019-03-28T04:21:08.005Z,2.20
2019-03-28T04:23:42.122Z,3.47
2019-03-28T04:26:15.309Z,5.90
2019-03-28T04:28:48.495Z,3.15
2019-03-28T04:31:23.609Z,2.17
2019-03-28T04:33:56.581Z,3.80
2019-03-28T04:36:29.615Z,2.47
2019-03-28T04:39:02.118Z,2.75
2019-03-28T04:41:35.621Z,3.15
2019-03-28T04:44:08.785Z,4.08
2019-03-28T04:46:41.556Z,2.17
2019-03-28T04:49:15.723Z,2.33
2019-03-28T04:51:48.600Z,3.12
2019-03-28T04:54:21.341Z,3.12
2019-03-28T04:56:53.909Z,1.98
2019-03-28T04:59:26.593Z,3.42
2019-03-28T05:02:03.246Z,2.58
2019-03-28T05:04:33.701Z,2.42
2019-03-28T05:07:06.371Z,3.67
2019-03-28T05:09:38.960Z,3.47
2019-03-28T05:12:11.630Z,3.40
2019-03-28T05:14:44.209Z,3.17
2019-03-28T05:17:16.794Z,3.22
2019-03-28T05:19:49.485Z,4.33
2019-03-28T05:22:22.492Z,3.10
2019-03-28T05:24:55.457Z,4.58
2019-03-28T05:27:28.560Z,4.87
2019-03-28T05:30:01.333Z,3.98
2019-03-28T05:32:34.195Z,6.40
2019-03-28T05:35:07.129Z,4.25
2019-03-28T05:37:39.728Z,5.62
2019-03-28T05:40:12.339Z,7.22
2019-03-28T05:42:45.128Z,23.20
2019-03-28T05:45:17.969Z,40.60
2019-03-28T05:47:50.582Z,44.67
2019-03-28T05:50:23.269Z,34.50
2019-03-28T05:52:55.933Z,28.15
2019-03-28T05:55:28.386Z,19.73
2019-03-28T05:58:00.995Z,22.70
2019-03-28T06:00:33.741Z,22.20
2019-03-28T06:03:06.393Z,19.92
2019-03-28T06:05:39.141Z,25.32
2019-03-28T06:08:11.861Z,24.00
2019-03-28T06:10:44.424Z,23.92
2019-03-28T06:13:17.093Z,15.30
2019-03-28T06:15:49.495Z,14.18
2019-03-28T06:18:21.977Z,11.00
2019-03-28T06:20:55.377Z,12.60
2019-03-28T06:23:28.062Z,10.72
2019-03-28T06:26:00.665Z,10.95
2019-03-28T06:28:33.301Z,9.58
2019-03-28T06:31:05.757Z,9.68
2019-03-28T06:33:38.523Z,10.00
2019-03-28T06:36:11.226Z,8.98
2019-03-28T06:38:43.614Z,11.90
2019-03-28T06:41:16.408Z,12.80
2019-03-28T06:43:48.997Z,12.68
2019-03-28T06:46:21.601Z,9.60
2019-03-28T06:48:54.116Z,9.00
2019-03-28T06:51:26.655Z,9.88
2019-03-28T06:53:59.168Z,7.92
2019-03-28T06:56:31.704Z,8.55
2019-03-28T06:59:04.531Z,6.97
2019-03-28T07:01:37.078Z,6.72
2019-03-28T07:04:09.589Z,7.10
2019-03-28T07:06:42.054Z,6.35
2019-03-28T07:09:15.942Z,5.55
2019-03-28T07:11:49.980Z,6.35
2019-03-28T07:14:22.378Z,6.95
2019-03-28T07:16:55.061Z,4.78
2019-03-28T07:19:27.631Z,5.50
2019-03-28T07:22:00.159Z,5.92
2019-03-28T07:24:32.812Z,5.10
2019-03-28T07:27:05.522Z,6.60
2019-03-28T07:29:50.246Z,5.20
2019-03-28T07:32:12.034Z,5.28
2019-03-28T07:34:47.186Z,4.62
2019-03-28T07:37:19.910Z,5.37
2019-03-28T07:39:52.302Z,5.72
2019-03-28T07:42:24.927Z,3.85
2019-03-28T07:44:58.203Z,5.15
2019-03-28T07:47:31.037Z,3.95
2019-03-28T07:50:05.050Z,4.12
2019-03-28T07:52:37.615Z,5.22
2019-03-28T07:55:10.409Z,4.05
2019-03-28T07:57:43.072Z,4.00
2019-03-28T08:00:15.667Z,4.37
2019-03-28T08:02:48.249Z,4.72
2019-03-28T08:05:20.751Z,4.17
2019-03-28T08:07:53.296Z,4.08
2019-03-28T08:10:26.363Z,5.37
2019-03-28T08:12:58.757Z,5.60
2019-03-28T08:15:31.283Z,4.15
2019-03-28T08:18:03.843Z,4.08
2019-03-28T08:20:36.494Z,2.72
2019-03-28T08:23:09.171Z,3.40
2019-03-28T08:25:41.808Z,3.25
2019-03-28T08:28:14.531Z,3.62
2019-03-28T08:30:47.215Z,3.62
2019-03-28T08:33:19.795Z,5.15
2019-03-28T08:35:52.345Z,2.62
2019-03-28T08:38:24.949Z,3.58
2019-03-28T08:40:57.461Z,2.87
2019-03-28T08:43:29.945Z,2.52
2019-03-28T08:46:02.462Z,2.35
2019-03-28T08:48:35.012Z,2.72
2019-03-28T08:51:07.561Z,3.52
2019-03-28T08:53:40.091Z,3.17
2019-03-28T08:56:12.609Z,2.67
2019-03-28T08:58:45.115Z,2.62
2019-03-28T09:01:17.561Z,2.90
2019-03-28T09:03:50.075Z,3.30
2019-03-28T09:06:22.764Z,2.20
2019-03-28T09:08:55.458Z,2.58
2019-03-28T09:11:28.139Z,2.35
2019-03-28T09:14:00.663Z,2.50
2019-03-28T09:16:33.140Z,2.60
2019-03-28T09:19:05.669Z,3.10
2019-03-28T09:21:38.362Z,3.85
2019-03-28T09:24:10.794Z,4.37
2019-03-28T09:26:40.955Z,4.45
2019-03-28T09:29:11.273Z,2.73
2019-03-28T09:31:41.606Z,4.40
2019-03-28T09:34:11.822Z,5.37
2019-03-28T09:36:42.039Z,5.13
2019-03-28T09:39:12.362Z,2.97
2019-03-28T09:41:42.897Z,3.05
2019-03-28T09:44:13.095Z,2.83
2019-03-28T09:46:43.433Z,3.07
2019-03-28T09:49:13.576Z,2.35
2019-03-28T09:51:43.779Z,2.93
2019-03-28T09:54:14.105Z,2.73
2019-03-28T09:56:44.331Z,2.57
2019-03-28T09:59:14.549Z,2.97
2019-03-28T10:01:44.995Z,2.83
2019-03-28T10:04:15.195Z,2.62
2019-03-28T10:06:45.459Z,2.25
2019-03-28T10:09:16.157Z,2.20
2019-03-28T10:11:46.479Z,2.30
2019-03-28T10:14:16.863Z,5.17
2019-03-28T10:16:47.107Z,2.90
2019-03-28T10:19:17.233Z,4.37
2019-03-28T10:21:47.356Z,3.27
2019-03-28T10:24:17.595Z,3.10
2019-03-28T10:26:47.894Z,3.33
2019-03-28T10:29:18.159Z,3.37
2019-03-28T10:31:48.422Z,3.47
2019-03-28T10:34:18.764Z,2.90
2019-03-28T10:36:49.116Z,2.50
2019-03-28T10:39:19.469Z,2.25
2019-03-28T10:41:52.834Z,2.67
2019-03-28T10:44:23.125Z,2.92
2019-03-28T10:46:53.591Z,2.10
2019-03-28T10:49:23.912Z,2.00
2019-03-28T10:51:54.347Z,1.65
2019-03-28T10:54:25.910Z,1.37
2019-03-28T10:56:58.041Z,3.90
2019-03-28T10:59:28.116Z,3.92
2019-03-28T11:01:58.466Z,4.87
2019-03-28T11:04:28.831Z,4.25
2019-03-28T11:06:59.250Z,5.25
2019-03-28T11:09:29.771Z,3.55
2019-03-28T11:12:00.147Z,3.85
2019-03-28T11:14:30.331Z,3.90
2019-03-28T11:17:00.506Z,4.97
2019-03-28T11:19:30.599Z,2.73
2019-03-28T11:22:00.696Z,2.40
2019-03-28T11:24:31.512Z,2.33
2019-03-28T11:29:31.369Z,1.70
2019-03-28T11:32:01.684Z,2.02
2019-03-28T11:34:32.004Z,3.58
2019-03-28T11:37:02.172Z,3.45
2019-03-28T11:39:32.449Z,1.73
2019-03-28T11:42:02.677Z,2.73
2019-03-28T11:44:33.247Z,2.62
2019-03-28T11:47:03.618Z,2.65
2019-03-28T11:49:33.854Z,3.07
2019-03-28T11:52:04.069Z,7.07
2019-03-28T11:54:34.613Z,11.15
2019-03-28T11:57:05.237Z,12.70
2019-03-28T11:59:35.566Z,13.98
2019-03-28T12:02:19.072Z,14.20
2019-03-28T12:04:38.874Z,10.23
2019-03-28T12:07:09.406Z,10.88
2019-03-28T12:09:39.662Z,9.97
2019-03-28T12:12:10.065Z,10.43
2019-03-28T12:14:40.423Z,8.90
2019-03-28T12:17:10.920Z,10.72
2019-03-28T12:19:41.136Z,8.63
2019-03-28T12:22:11.506Z,10.68
2019-03-28T12:24:44.854Z,6.92
2019-03-28T12:27:15.680Z,7.22
2019-03-28T12:29:45.984Z,7.15
2019-03-28T12:32:16.338Z,8.40
2019-03-28T12:34:46.661Z,7.17
2019-03-28T12:37:16.877Z,5.65
2019-03-28T12:39:47.301Z,6.10
2019-03-28T12:42:17.626Z,7.50
2019-03-28T12:44:56.796Z,6.03
2019-03-28T12:47:19.824Z,5.03
2019-03-28T12:49:51.094Z,7.15
2019-03-28T12:52:23.657Z,5.83
2019-03-28T12:54:54.680Z,6.22
2019-03-28T12:57:25.187Z,7.62
2019-03-28T12:59:55.266Z,4.60
2019-03-28T13:02:31.311Z,6.70
2019-03-28T13:04:57.478Z,5.47
2019-03-28T13:07:27.714Z,5.10
2019-03-28T13:09:57.891Z,6.37
2019-03-28T13:12:28.286Z,4.70
2019-03-28T13:14:58.628Z,4.30
2019-03-28T13:17:32.288Z,6.87
2019-03-28T13:20:02.484Z,4.65
2019-03-28T13:22:35.795Z,3.80
2019-03-28T13:25:07.565Z,3.10
2019-03-28T13:27:37.909Z,6.60
2019-03-28T13:30:14.789Z,3.77
2019-03-28T13:32:45.006Z,3.25
2019-03-28T13:35:15.488Z,6.37
2019-03-28T13:37:45.748Z,2.87
2019-03-28T13:40:16.160Z,4.15
2019-03-28T13:42:46.455Z,3.80
2019-03-28T13:45:17.491Z,2.75
2019-03-28T13:47:47.882Z,4.45
2019-03-28T13:50:18.311Z,3.95
2019-03-28T13:52:49.522Z,7.75
2019-03-28T13:57:52.078Z,2.65
2019-03-28T14:00:33.124Z,3.15
2019-03-28T14:03:06.519Z,4.70
2019-03-28T14:05:39.779Z,3.52
2019-03-28T14:08:10.140Z,3.37
2019-03-28T14:10:40.349Z,3.02
2019-03-28T14:13:12.282Z,5.47
2019-03-28T14:15:47.466Z,5.55
2019-03-28T14:18:18.458Z,6.22
2019-03-28T14:20:48.888Z,3.55
2019-03-28T14:23:19.240Z,5.65
2019-03-28T14:25:49.612Z,2.35
2019-03-28T14:28:20.865Z,4.60
2019-03-28T14:30:51.729Z,2.22
2019-03-28T14:33:22.044Z,3.75
2019-03-28T14:35:52.172Z,2.37
2019-03-28T14:38:22.366Z,2.63
2019-03-28T14:40:52.864Z,4.17
2019-03-28T14:43:23.328Z,2.33
2019-03-28T14:45:53.782Z,2.92
2019-03-28T14:48:24.066Z,2.45
2019-03-28T14:50:54.419Z,1.52
2019-03-28T14:53:26.221Z,5.60
2019-03-28T14:55:56.411Z,1.98
2019-03-28T14:58:26.670Z,1.53
2019-03-28T15:00:56.932Z,2.55
2019-03-28T15:03:27.776Z,1.40
2019-03-28T15:05:58.688Z,4.37
2019-03-28T15:08:29.197Z,2.98
2019-03-28T15:10:59.516Z,2.27
2019-03-28T15:13:29.944Z,4.55
2019-03-28T15:16:00.283Z,4.33
2019-03-28T15:18:30.506Z,4.03
2019-03-28T15:21:00.811Z,5.97
2019-03-28T15:23:31.137Z,9.25
2019-03-28T15:26:01.362Z,5.90
2019-03-28T15:28:31.793Z,11.08
2019-03-28T15:31:02.111Z,8.13
2019-03-28T15:33:39.456Z,16.62
2019-03-28T15:36:04.414Z,20.37
2019-03-28T15:38:34.726Z,14.78
2019-03-28T15:41:04.722Z,11.45
2019-03-28T15:43:34.965Z,12.30
2019-03-28T15:46:05.291Z,7.90
2019-03-28T15:48:36.915Z,10.20
2019-03-28T15:51:07.166Z,10.70
2019-03-28T15:53:37.388Z,6.83
2019-03-28T15:56:07.713Z,8.78
2019-03-28T15:58:38.056Z,9.50
2019-03-28T16:01:08.413Z,8.43
2019-03-28T16:03:52.098Z,8.73
2019-03-28T16:06:10.770Z,7.80
2019-03-28T16:08:41.505Z,8.93
2019-03-28T16:11:12.363Z,9.40
2019-03-28T16:13:42.640Z,8.38
2019-03-28T16:16:13.209Z,12.93
2019-03-28T16:18:43.577Z,6.60
2019-03-28T16:21:14.237Z,9.03
2019-03-28T16:23:45.020Z,8.53
2019-03-28T16:28:45.011Z,5.00
2019-03-28T16:31:15.221Z,8.83
2019-03-28T16:33:45.540Z,8.85
2019-03-28T16:36:15.741Z,9.03
2019-03-28T16:38:48.118Z,8.33
2019-03-28T16:41:18.585Z,6.42
2019-03-28T16:43:48.898Z,4.80
2019-03-28T16:46:19.127Z,5.55
2019-03-28T16:48:49.412Z,7.17
2019-03-28T16:51:20.002Z,8.73
2019-03-28T16:53:50.325Z,6.33
2019-03-28T16:56:20.991Z,6.42
2019-03-28T16:58:55.533Z,5.00
2019-03-28T17:01:25.944Z,9.28
2019-03-28T17:03:56.433Z,5.20
2019-03-28T17:06:27.827Z,5.20
2019-03-28T17:08:58.190Z,7.45
2019-03-28T17:11:28.944Z,6.73
2019-03-28T17:14:01.227Z,9.93
2019-03-28T17:16:31.477Z,6.55
2019-03-28T17:19:02.402Z,11.97
2019-03-28T17:21:32.686Z,13.62
2019-03-28T17:24:03.226Z,11.00
2019-03-28T17:26:42.663Z,9.98
2019-03-28T17:29:14.929Z,10.85
2019-03-28T17:31:45.490Z,10.15
2019-03-28T17:34:15.872Z,8.30
2019-03-28T17:36:46.206Z,9.18
2019-03-28T17:39:16.523Z,7.67
2019-03-28T17:41:46.747Z,8.05
2019-03-28T17:44:17.389Z,8.93
2019-03-28T17:46:47.725Z,8.83
2019-03-28T17:49:19.769Z,6.72
2019-03-28T17:51:50.625Z,7.97
2019-03-28T17:54:20.938Z,6.28
2019-03-28T17:56:51.483Z,12.20
2019-03-28T17:59:21.906Z,14.45
2019-03-28T18:01:52.254Z,17.82
2019-03-28T18:04:23.474Z,15.93
2019-03-28T18:06:54.603Z,17.80
2019-03-28T18:11:54.466Z,19.07
2019-03-28T18:14:24.667Z,14.83
2019-03-28T18:16:54.945Z,16.83
2019-03-28T18:19:25.274Z,14.60
2019-03-28T18:22:03.264Z,23.90
2019-03-28T18:24:30.275Z,21.37
2019-03-28T18:26:59.432Z,18.00
2019-03-28T18:29:29.593Z,19.03
2019-03-28T18:31:59.894Z,16.67
2019-03-28T18:34:30.056Z,17.40
2019-03-28T18:37:00.417Z,20.02
2019-03-28T18:39:30.816Z,12.88
2019-03-28T18:42:05.089Z,14.07
2019-03-28T18:44:35.896Z,17.95
2019-03-28T18:47:06.105Z,17.00
2019-03-28T18:49:36.443Z,13.30
2019-03-28T18:52:07.488Z,13.17
2019-03-28T18:54:38.037Z,13.25
2019-03-28T18:57:08.377Z,13.30
2019-03-28T18:59:38.689Z,23.07
2019-03-28T19:02:09.009Z,20.52
2019-03-28T19:04:39.239Z,14.07
2019-03-28T19:07:10.219Z,19.90
2019-03-28T19:09:41.279Z,14.38
2019-03-28T19:12:11.617Z,11.55
2019-03-28T19:14:41.853Z,16.53
2019-03-28T19:17:12.283Z,16.52
2019-03-28T19:19:43.734Z,18.65
2019-03-28T19:22:14.178Z,12.15
2019-03-28T19:24:44.999Z,12.82
2019-03-28T19:27:15.647Z,11.63
2019-03-28T19:29:46.063Z,10.50
2019-03-28T19:32:18.641Z,14.85
2019-03-28T19:34:48.970Z,11.75
2019-03-28T19:37:22.621Z,13.72
2019-03-28T19:39:51.357Z,10.10
2019-03-28T19:42:22.646Z,11.57
2019-03-28T19:44:54.050Z,9.95
2019-03-28T19:49:53.673Z,9.13
2019-03-28T19:52:24.003Z,11.83
2019-03-28T19:54:54.333Z,11.50
2019-03-28T19:57:24.765Z,15.10
2019-03-28T19:59:58.435Z,15.43
2019-03-28T20:02:26.935Z,8.73
2019-03-28T20:04:57.283Z,8.03
2019-03-28T20:07:28.309Z,13.03
2019-03-28T20:09:58.844Z,14.87
2019-03-28T20:12:29.269Z,15.32
2019-03-28T20:15:00.267Z,14.25
2019-03-28T20:17:33.871Z,14.30
2019-03-28T20:20:06.142Z,10.93
2019-03-28T20:22:37.950Z,13.68
2019-03-28T20:25:08.508Z,10.72
2019-03-28T20:27:38.828Z,11.53
2019-03-28T20:30:09.931Z,11.85
2019-03-28T20:32:40.500Z,12.28
2019-03-28T20:35:11.021Z,13.00
2019-03-28T20:37:41.312Z,12.35
2019-03-28T20:40:11.660Z,8.83
2019-03-28T20:42:42.169Z,11.35
2019-03-28T20:45:12.601Z,9.55
2019-03-28T20:47:42.859Z,12.98
2019-03-28T20:50:13.128Z,12.23
2019-03-28T20:52:44.692Z,10.75
2019-03-28T20:55:15.249Z,9.70
2019-03-28T20:57:45.566Z,15.78
2019-03-28T21:00:15.977Z,11.63
2019-03-28T21:02:46.320Z,10.08
2019-03-28T21:05:16.665Z,26.20
2019-03-28T21:07:46.950Z,33.15
2019-03-28T21:10:25.347Z,24.20
2019-03-28T21:12:55.421Z,25.45
2019-03-28T21:15:25.706Z,21.65
2019-03-28T21:17:55.934Z,20.55
2019-03-28T21:20:26.263Z,19.17
2019-03-28T21:22:56.518Z,19.25
2019-03-28T21:25:29.404Z,16.77
2019-03-28T21:27:58.855Z,18.77
2019-03-28T21:30:29.708Z,15.53
2019-03-28T21:32:59.973Z,15.55
2019-03-28T21:35:30.448Z,14.90
2019-03-28T21:38:00.720Z,16.67
2019-03-28T21:40:30.892Z,14.35
2019-03-28T21:43:01.322Z,12.73
2019-03-28T21:45:31.625Z,10.82
2019-03-28T21:48:01.840Z,11.93
2019-03-28T21:50:32.501Z,12.80
2019-03-28T21:53:02.564Z,8.15
2019-03-28T21:55:32.779Z,10.53
2019-03-28T21:58:02.962Z,11.50
2019-03-28T22:00:33.117Z,8.25
2019-03-28T22:03:03.470Z,7.90
2019-03-28T22:05:33.837Z,9.30
2019-03-28T22:08:04.158Z,9.47
2019-03-28T22:10:34.279Z,7.58
2019-03-28T22:13:04.493Z,7.83
2019-03-28T22:15:34.705Z,7.92
2019-03-28T22:18:05.240Z,5.83
2019-03-28T22:20:35.477Z,7.85
2019-03-28T22:23:05.800Z,9.73
2019-03-28T22:25:36.231Z,7.10
2019-03-28T22:28:06.869Z,5.75
2019-03-28T22:30:37.054Z,7.45
2019-03-28T22:33:07.267Z,6.93
2019-03-28T22:35:37.533Z,5.75
2019-03-28T22:38:07.849Z,5.30
2019-03-28T22:40:38.201Z,6.55
2019-03-28T22:43:08.501Z,6.23
2019-03-28T22:45:38.929Z,6.33
2019-03-28T22:48:11.043Z,6.40
2019-03-28T22:50:41.319Z,8.55
2019-03-28T22:53:11.551Z,5.17
2019-03-28T22:55:41.759Z,5.33
2019-03-28T22:58:12.012Z,4.75
2019-03-28T23:00:44.798Z,4.28
2019-03-28T23:03:15.911Z,4.25
2019-03-28T23:08:16.051Z,6.03
2019-03-28T23:10:46.370Z,5.63
2019-03-28T23:13:16.619Z,5.60
2019-03-28T23:15:47.223Z,4.70
2019-03-28T23:18:17.523Z,4.08
2019-03-28T23:20:47.974Z,4.73
2019-03-28T23:23:18.125Z,6.42
2019-03-28T23:25:48.364Z,4.63
2019-03-28T23:28:19.021Z,4.95
2019-03-28T23:30:49.375Z,6.20
2019-03-28T23:33:19.600Z,3.57
2019-03-28T23:35:49.857Z,5.27
2019-03-28T23:38:20.195Z,4.72
2019-03-28T23:40:50.490Z,6.33
2019-03-28T23:43:20.652Z,4.37
2019-03-28T23:45:51.015Z,3.80
2019-03-28T23:48:21.833Z,5.33
2019-03-28T23:53:21.993Z,3.83
2019-03-28T23:55:52.185Z,5.37
2019-03-28T23:58:22.436Z,4.67
